createdAt,value
2023-11-04T00:00:02.174Z,99019.31
2023-11-04T00:02:32.409Z,99022.84
2023-11-04T00:04:59.822Z,99023.69
2023-11-04T00:07:27.473Z,99021.00
2023-11-04T00:09:57.090Z,99025.34
2023-11-04T00:12:25.124Z,99027.38
2023-11-04T00:14:52.586Z,99023.84
2023-11-04T00:17:19.864Z,99026.72
2023-11-04T00:19:47.246Z,99026.72
2023-11-04T00:22:15.788Z,99030.03
2023-11-04T00:24:43.241Z,99042.81
2023-11-04T00:27:10.744Z,99042.00
2023-11-04T00:29:39.107Z,99046.53
2023-11-04T00:32:06.865Z,99044.00
2023-11-04T00:34:34.339Z,99043.03
2023-11-04T00:37:01.747Z,99040.50
2023-11-04T00:39:29.056Z,99047.72
2023-11-04T00:41:56.800Z,99045.03
2023-11-04T00:44:24.157Z,99045.03
2023-11-04T00:46:52.149Z,99054.09
2023-11-04T00:49:19.582Z,99047.06
2023-11-04T00:51:47.001Z,99057.81
2023-11-04T00:54:14.548Z,99068.53
2023-11-04T00:56:41.985Z,99062.31
2023-11-04T00:59:09.404Z,99071.38
2023-11-04T01:01:36.971Z,99079.44
2023-11-04T01:04:04.547Z,99075.94
2023-11-04T01:06:32.023Z,99076.75
2023-11-04T01:08:59.375Z,99089.34
2023-11-04T01:11:27.559Z,99085.84
2023-11-04T01:13:55.935Z,99084.16
2023-11-04T01:16:23.773Z,99098.41
2023-11-04T01:18:51.293Z,99094.03
2023-11-04T01:21:18.892Z,99103.91
2023-11-04T01:23:46.233Z,99105.63
2023-11-04T01:26:13.629Z,99107.47
2023-11-04T01:28:41.142Z,99105.75
2023-11-04T01:31:08.519Z,99111.31
2023-11-04T01:33:35.917Z,99106.78
2023-11-04T01:36:04.341Z,99115.66
2023-11-04T01:38:32.362Z,99117.53
2023-11-04T01:40:59.712Z,99122.88
2023-11-04T01:43:28.912Z,99129.09
2023-11-04T01:46:14.542Z,99126.59
2023-11-04T01:48:43.361Z,99143.53
2023-11-04T01:51:12.180Z,99151.59
2023-11-04T01:53:43.168Z,99148.06
2023-11-04T01:56:12.507Z,99138.16
2023-11-04T01:58:46.178Z,99147.22
2023-11-04T02:01:14.704Z,99155.28
2023-11-04T02:03:42.173Z,99155.28
2023-11-04T02:06:10.352Z,99145.53
2023-11-04T02:08:37.965Z,99148.22
2023-11-04T02:11:05.942Z,99158.13
2023-11-04T02:13:33.285Z,99173.41
2023-11-04T02:16:00.666Z,99172.38
2023-11-04T02:18:29.034Z,99176.09
2023-11-04T02:21:02.648Z,99170.72
2023-11-04T02:23:30.014Z,99170.72
2023-11-04T02:25:57.523Z,99164.50
2023-11-04T02:28:24.949Z,99165.34
2023-11-04T02:30:52.361Z,99175.25
2023-11-04T02:33:20.277Z,99175.25
2023-11-04T02:35:50.861Z,99175.25
2023-11-04T02:38:19.404Z,99178.94
2023-11-04T02:40:47.449Z,99179.78
2023-11-04T02:43:14.813Z,99179.78
2023-11-04T02:45:42.294Z,99177.25
2023-11-04T02:48:09.868Z,99178.13
2023-11-04T02:50:37.227Z,99181.78
2023-11-04T02:53:04.624Z,99178.13
2023-11-04T02:55:32.094Z,99183.50
2023-11-04T02:57:59.503Z,99182.63
2023-11-04T03:00:26.962Z,99184.47
2023-11-04T03:02:55.276Z,99190.84
2023-11-04T03:05:27.964Z,99191.69
2023-11-04T03:08:02.485Z,99193.34
2023-11-04T03:10:29.972Z,99197.06
2023-11-04T03:12:58.010Z,99192.72
2023-11-04T03:15:25.430Z,99198.06
2023-11-04T03:17:52.984Z,99191.69
2023-11-04T03:20:21.184Z,99190.03
2023-11-04T03:22:48.632Z,99197.25
2023-11-04T03:25:16.745Z,99199.94
2023-11-04T03:27:44.733Z,99199.94
2023-11-04T03:30:12.512Z,99201.59
2023-11-04T03:32:40.137Z,99202.63
2023-11-04T03:35:08.205Z,99209.84
2023-11-04T03:37:36.028Z,99211.69
2023-11-04T03:40:03.838Z,99215.19
2023-11-04T03:42:31.739Z,99215.19
2023-11-04T03:44:59.197Z,99217.06
2023-11-04T03:47:26.706Z,99218.03
2023-11-04T03:49:54.169Z,99209.97
2023-11-04T03:52:21.453Z,99213.50
2023-11-04T03:54:48.834Z,99207.31
2023-11-04T03:57:16.174Z,99212.66
2023-11-04T03:59:43.535Z,99217.19
2023-11-04T04:02:11.508Z,99218.22
2023-11-04T04:04:39.135Z,99216.38
2023-11-04T04:07:06.463Z,99215.53
2023-11-04T04:09:34.367Z,99217.38
2023-11-04T04:12:01.709Z,99220.06
2023-11-04T04:14:29.160Z,99218.22
2023-11-04T04:16:56.456Z,99214.69
2023-11-04T04:19:23.902Z,99224.59
2023-11-04T04:21:51.266Z,99217.38
2023-11-04T04:24:18.726Z,99218.22
2023-11-04T04:26:46.658Z,99215.72
2023-11-04T04:29:13.961Z,99221.09
2023-11-04T04:31:41.371Z,99217.53
2023-11-04T04:34:08.757Z,99219.38
2023-11-04T04:36:36.155Z,99222.06
2023-11-04T04:39:03.988Z,99222.06
2023-11-04T04:41:31.390Z,99219.38
2023-11-04T04:43:59.912Z,99220.41
2023-11-04T04:46:27.179Z,99227.63
2023-11-04T04:48:54.549Z,99231.13
2023-11-04T04:51:22.481Z,99235.66
2023-11-04T04:53:49.933Z,99238.34
2023-11-04T04:56:17.692Z,99247.41
2023-11-04T04:58:45.066Z,99242.88
2023-11-04T05:01:19.540Z,99244.75
2023-11-04T05:03:47.220Z,99244.88
2023-11-04T05:06:14.647Z,99248.41
2023-11-04T05:08:42.159Z,99242.06
2023-11-04T05:11:10.153Z,99240.34
2023-11-04T05:13:37.790Z,99231.47
2023-11-04T05:16:08.565Z,99235.00
2023-11-04T05:18:36.280Z,99244.88
2023-11-04T05:21:04.136Z,99239.53
2023-11-04T05:23:32.638Z,99234.16
2023-11-04T05:26:00.793Z,99237.03
2023-11-04T05:28:28.212Z,99235.19
2023-11-04T05:30:56.701Z,99250.44
2023-11-04T05:33:26.893Z,99240.53
2023-11-04T05:35:54.758Z,99245.25
2023-11-04T05:38:24.403Z,99251.28
2023-11-04T05:40:51.941Z,99251.47
2023-11-04T05:43:21.151Z,99258.69
2023-11-04T05:45:48.967Z,99263.03
2023-11-04T05:48:16.476Z,99269.03
2023-11-04T05:50:43.915Z,99280.78
2023-11-04T05:53:11.234Z,99284.31
2023-11-04T05:55:40.438Z,99289.03
2023-11-04T05:58:08.271Z,99283.66
2023-11-04T06:00:37.344Z,99291.72
2023-11-04T06:03:04.874Z,99287.19
2023-11-04T06:05:32.449Z,99287.19
2023-11-04T06:08:00.419Z,99281.13
2023-11-04T06:10:28.090Z,99286.50
2023-11-04T06:12:55.518Z,99288.34
2023-11-04T06:15:22.780Z,99286.69
2023-11-04T06:17:50.517Z,99298.25
2023-11-04T06:20:19.299Z,99298.25
2023-11-04T06:22:47.729Z,99298.25
2023-11-04T06:25:15.068Z,99292.88
2023-11-04T06:27:42.337Z,99300.28
2023-11-04T06:30:11.517Z,99295.75
2023-11-04T06:32:38.888Z,99301.94
2023-11-04T06:35:06.978Z,99298.41
2023-11-04T06:37:36.939Z,99294.91
2023-11-04T06:40:07.375Z,99289.53
2023-11-04T06:42:34.943Z,99300.28
2023-11-04T06:45:02.239Z,99306.47
2023-11-04T06:47:29.643Z,99305.63
2023-11-04T06:49:56.993Z,99306.47
2023-11-04T06:52:24.292Z,99314.66
2023-11-04T06:54:51.639Z,99316.38
2023-11-04T06:57:19.969Z,99316.38
2023-11-04T06:59:47.334Z,99320.03
2023-11-04T07:02:14.693Z,99320.03
2023-11-04T07:04:42.338Z,99319.19
2023-11-04T07:07:10.306Z,99323.56
2023-11-04T07:09:38.207Z,99330.78
2023-11-04T07:12:05.803Z,99334.47
2023-11-04T07:14:33.173Z,99335.31
2023-11-04T07:17:01.108Z,99340.66
2023-11-04T07:19:28.422Z,99342.50
2023-11-04T07:21:55.869Z,99353.06
2023-11-04T07:24:23.290Z,99352.22
2023-11-04T07:26:50.811Z,99356.78
2023-11-04T07:29:18.802Z,99358.63
2023-11-04T07:31:48.241Z,99359.44
2023-11-04T07:34:16.144Z,99353.25
2023-11-04T07:36:43.738Z,99358.63
2023-11-04T07:39:12.094Z,99360.47
2023-11-04T07:41:42.294Z,99351.41
2023-11-04T07:44:10.062Z,99356.78
2023-11-04T07:46:37.831Z,99365.66
2023-11-04T07:49:05.910Z,99373.69
2023-11-04T07:51:33.372Z,99367.50
2023-11-04T07:54:00.676Z,99363.97
2023-11-04T07:56:28.379Z,99368.34
2023-11-04T07:58:55.971Z,99367.50
2023-11-04T08:01:23.387Z,99367.34
2023-11-04T08:03:50.805Z,99372.88
2023-11-04T08:06:18.673Z,99370.88
2023-11-04T08:08:45.997Z,99369.16
2023-11-04T08:11:13.868Z,99371.72
2023-11-04T08:13:41.150Z,99354.78
2023-11-04T08:16:09.183Z,99346.72
2023-11-04T08:18:37.014Z,99338.50
2023-11-04T08:21:06.098Z,99342.00
2023-11-04T08:23:33.760Z,99342.84
2023-11-04T08:26:02.461Z,99348.22
2023-11-04T08:28:30.151Z,99359.78
2023-11-04T08:30:59.228Z,99361.47
2023-11-04T08:33:27.488Z,99354.41
2023-11-04T08:35:55.143Z,99356.13
2023-11-04T08:38:22.621Z,99364.16
2023-11-04T08:40:50.054Z,99371.38
2023-11-04T08:43:17.522Z,99374.72
2023-11-04T08:45:44.850Z,99373.69
2023-11-04T08:48:12.327Z,99369.03
2023-11-04T08:50:39.826Z,99383.28
2023-11-04T08:53:07.284Z,99383.09
2023-11-04T08:55:34.734Z,99385.78
2023-11-04T08:58:02.139Z,99369.84
2023-11-04T09:00:30.507Z,99371.72
2023-11-04T09:02:57.986Z,99382.44
2023-11-04T09:05:31.608Z,99374.38
2023-11-04T09:08:01.742Z,99374.38
2023-11-04T09:10:29.171Z,99373.19
2023-11-04T09:12:58.161Z,99372.22
2023-11-04T09:15:26.151Z,99377.41
2023-11-04T09:17:53.705Z,99382.78
2023-11-04T09:20:21.123Z,99387.13
2023-11-04T09:22:48.504Z,99391.50
2023-11-04T09:25:15.953Z,99383.28
2023-11-04T09:27:43.495Z,99385.13
2023-11-04T09:30:11.321Z,99377.91
2023-11-04T09:32:38.728Z,99380.78
2023-11-04T09:35:07.080Z,99371.03
2023-11-04T09:37:34.528Z,99371.19
2023-11-04T09:40:01.965Z,99384.63
2023-11-04T09:42:31.546Z,99378.22
2023-11-04T09:44:59.004Z,99377.06
2023-11-04T09:47:27.229Z,99373.38
2023-11-04T09:49:54.582Z,99377.72
2023-11-04T09:52:23.185Z,99379.44
2023-11-04T09:54:51.255Z,99385.44
2023-11-04T09:57:18.748Z,99371.19
2023-11-04T09:59:46.159Z,99378.41
2023-11-04T10:02:13.713Z,99379.44
2023-11-04T10:04:41.600Z,99374.91
2023-11-04T10:07:09.562Z,99383.09
2023-11-04T10:09:38.481Z,99377.06
2023-11-04T10:12:06.496Z,99368.00
2023-11-04T10:14:33.941Z,99357.78
2023-11-04T10:17:02.049Z,99347.88
2023-11-04T10:19:29.565Z,99352.91
2023-11-04T10:21:57.380Z,99343.00
2023-11-04T10:24:25.298Z,99340.13
2023-11-04T10:26:52.639Z,99343.69
2023-11-04T10:29:19.999Z,99339.19
2023-11-04T10:31:49.122Z,99330.94
2023-11-04T10:34:18.543Z,99329.09
2023-11-04T10:36:50.325Z,99325.41
2023-11-04T10:39:22.149Z,99323.59
2023-11-04T10:42:08.444Z,99320.03
2023-11-04T10:44:40.898Z,99311.31
2023-11-04T10:47:39.049Z,99316.16
2023-11-04T10:50:13.392Z,99319.03
2023-11-04T10:52:55.845Z,99310.97
2023-11-04T10:55:30.404Z,99300.06
2023-11-04T10:58:06.975Z,99298.91
2023-11-04T11:00:36.614Z,99297.91
2023-11-04T11:03:04.759Z,99298.56
2023-11-04T11:05:33.197Z,99304.78
2023-11-04T11:08:00.787Z,99310.16
2023-11-04T11:10:40.199Z,99314.66
2023-11-04T11:13:20.888Z,99308.66
2023-11-04T11:15:49.964Z,99314.16
2023-11-04T11:18:27.829Z,99306.09
2023-11-04T11:20:55.402Z,99304.28
2023-11-04T11:23:29.558Z,99307.81
2023-11-04T11:26:09.103Z,99315.88
2023-11-04T11:28:41.587Z,99299.75
2023-11-04T11:31:14.332Z,99288.84
2023-11-04T11:33:43.973Z,99301.41
2023-11-04T11:36:15.598Z,99295.22
2023-11-04T11:38:47.050Z,99289.00
2023-11-04T11:41:16.504Z,99281.94
2023-11-04T11:43:44.699Z,99277.44
2023-11-04T11:46:12.274Z,99282.94
2023-11-04T11:48:41.545Z,99282.09
2023-11-04T11:51:12.503Z,99286.44
2023-11-04T11:53:43.624Z,99282.09
2023-11-04T11:56:12.340Z,99291.00
2023-11-04T11:58:40.238Z,99289.13
2023-11-04T12:01:09.558Z,99276.56
2023-11-04T12:03:37.582Z,99271.06
2023-11-04T12:06:06.138Z,99267.53
2023-11-04T12:08:33.822Z,99289.00
2023-11-04T12:11:01.499Z,99282.81
2023-11-04T12:13:29.219Z,99285.50
2023-11-04T12:15:57.097Z,99282.81
2023-11-04T12:18:27.543Z,99276.44
2023-11-04T12:20:55.315Z,99281.78
2023-11-04T12:23:28.240Z,99286.16
2023-11-04T12:25:57.446Z,99282.81
2023-11-04T12:28:28.115Z,99283.13
2023-11-04T12:31:03.361Z,99279.59
2023-11-04T12:33:31.401Z,99274.38
2023-11-04T12:36:12.850Z,99282.63
2023-11-04T12:38:45.457Z,99283.78
2023-11-04T12:41:15.321Z,99281.28
2023-11-04T12:43:45.056Z,99276.75
2023-11-04T12:46:14.376Z,99265.34
2023-11-04T12:48:41.993Z,99269.72
2023-11-04T12:51:11.605Z,99257.31
2023-11-04T12:53:40.613Z,99255.59
2023-11-04T12:56:08.660Z,99264.84
2023-11-04T12:58:36.150Z,99268.72
2023-11-04T13:01:03.645Z,99250.09
2023-11-04T13:03:31.139Z,99260.00
2023-11-04T13:05:58.556Z,99259.16
2023-11-04T13:08:25.931Z,99260.00
2023-11-04T13:10:54.819Z,99248.41
2023-11-04T13:13:22.190Z,99251.28
2023-11-04T13:15:50.245Z,99256.66
2023-11-04T13:18:18.609Z,99256.97
2023-11-04T13:20:46.099Z,99251.59
2023-11-04T13:23:15.567Z,99243.41
2023-11-04T13:25:44.247Z,99252.09
2023-11-04T13:28:11.671Z,99257.31
2023-11-04T13:30:39.214Z,99263.69
2023-11-04T13:33:06.749Z,99259.00
2023-11-04T13:35:34.516Z,99255.47
2023-11-04T13:38:01.813Z,99250.09
2023-11-04T13:40:29.187Z,99250.94
2023-11-04T13:42:56.519Z,99251.78
2023-11-04T13:45:24.426Z,99245.56
2023-11-04T13:47:51.879Z,99248.41
2023-11-04T13:50:22.806Z,99249.28
2023-11-04T13:52:50.252Z,99246.59
2023-11-04T13:55:20.737Z,99242.22
2023-11-04T13:57:48.092Z,99239.53
2023-11-04T14:00:15.699Z,99232.31
2023-11-04T14:02:43.411Z,99231.47
2023-11-04T14:05:11.143Z,99215.56
2023-11-04T14:07:38.774Z,99209.69
2023-11-04T14:10:08.626Z,99196.59
2023-11-04T14:12:36.403Z,99187.06
2023-11-04T14:15:04.113Z,99186.25
2023-11-04T14:17:32.147Z,99193.44
2023-11-04T14:19:59.632Z,99176.34
2023-11-04T14:22:26.970Z,99165.44
2023-11-04T14:24:55.234Z,99173.28
2023-11-04T14:27:22.791Z,99168.59
2023-11-04T14:29:50.241Z,99158.72
2023-11-04T14:32:18.097Z,99163.06
2023-11-04T14:34:47.800Z,99147.63
2023-11-04T14:37:17.015Z,99142.91
2023-11-04T14:39:44.737Z,99143.59
2023-11-04T14:42:12.219Z,99148.63
2023-11-04T14:44:40.525Z,99140.38
2023-11-04T14:47:07.830Z,99138.34
2023-11-04T14:49:35.246Z,99135.50
2023-11-04T14:52:02.722Z,99133.47
2023-11-04T14:54:30.197Z,99118.22
2023-11-04T14:56:59.913Z,99126.94
2023-11-04T14:59:29.649Z,99131.47
2023-11-04T15:01:57.200Z,99126.94
2023-11-04T15:04:24.819Z,99110.81
2023-11-04T15:06:52.839Z,99116.19
2023-11-04T15:09:20.934Z,99111.66
2023-11-04T15:11:49.126Z,99106.47
2023-11-04T15:14:16.686Z,99091.38
2023-11-04T15:16:44.105Z,99077.94
2023-11-04T15:19:11.594Z,99082.47
2023-11-04T15:21:39.106Z,99088.03
2023-11-04T15:24:07.055Z,99089.06
2023-11-04T15:26:34.488Z,99098.09
2023-11-04T15:29:01.862Z,99092.72
2023-11-04T15:31:29.224Z,99092.91
2023-11-04T15:33:56.811Z,99092.09
2023-11-04T15:36:24.087Z,99096.63
2023-11-04T15:38:51.477Z,99089.59
2023-11-04T15:41:18.789Z,99087.72
2023-11-04T15:43:46.183Z,99079.84
2023-11-04T15:46:13.565Z,99067.44
2023-11-04T15:48:41.018Z,99045.13
2023-11-04T15:51:08.716Z,99041.63
2023-11-04T15:53:36.362Z,99042.44
2023-11-04T15:56:04.805Z,99048.84
2023-11-04T15:58:32.261Z,99040.78
2023-11-04T16:00:59.688Z,99049.69
2023-11-04T16:03:27.117Z,99052.34
2023-11-04T16:05:55.189Z,99060.56
2023-11-04T16:08:23.115Z,99066.94
2023-11-04T16:10:50.550Z,99054.38
2023-11-04T16:13:19.645Z,99040.94
2023-11-04T16:15:47.164Z,99046.31
2023-11-04T16:18:14.663Z,99040.94
2023-11-04T16:20:42.136Z,99035.75
2023-11-04T16:23:09.520Z,99033.91
2023-11-04T16:25:36.865Z,99026.69
2023-11-04T16:28:04.340Z,99041.13
2023-11-04T16:30:31.680Z,99041.13
2023-11-04T16:32:59.086Z,99047.53
2023-11-04T16:35:26.572Z,99050.19
2023-11-04T16:37:53.884Z,99044.00
2023-11-04T16:40:21.345Z,99038.63
2023-11-04T16:42:49.932Z,99044.66
2023-11-04T16:45:17.648Z,99050.19
2023-11-04T16:47:45.156Z,99042.31
2023-11-04T16:50:15.898Z,99037.78
2023-11-04T16:52:44.273Z,99044.00
2023-11-04T16:55:12.815Z,99046.69
2023-11-04T16:57:40.210Z,99036.94
2023-11-04T17:00:10.557Z,99028.06
2023-11-04T17:02:38.118Z,99021.88
2023-11-04T17:05:07.008Z,99000.41
2023-11-04T17:07:35.132Z,99001.06
2023-11-04T17:10:04.103Z,98985.13
2023-11-04T17:12:33.038Z,98988.66
2023-11-04T17:15:00.923Z,98982.44
2023-11-04T17:17:28.500Z,98987.81
2023-11-04T17:19:55.836Z,98979.75
2023-11-04T17:22:23.458Z,98966.34
2023-11-04T17:24:50.852Z,98952.94
2023-11-04T17:27:18.306Z,98960.16
2023-11-04T17:29:45.591Z,98956.63
2023-11-04T17:32:12.992Z,98952.09
2023-11-04T17:34:40.484Z,98953.94
2023-11-04T17:37:08.761Z,98951.25
2023-11-04T17:39:36.432Z,98950.44
2023-11-04T17:42:03.936Z,98940.53
2023-11-04T17:44:31.286Z,98941.56
2023-11-04T17:46:58.787Z,98945.06
2023-11-04T17:49:26.722Z,98941.56
2023-11-04T17:51:55.356Z,98942.38
2023-11-04T17:54:22.869Z,98932.50
2023-11-04T17:56:50.250Z,98915.56
2023-11-04T17:59:17.688Z,98913.91
2023-11-04T18:01:45.192Z,98913.03
2023-11-04T18:04:13.318Z,98920.09
2023-11-04T18:06:40.839Z,98913.91
2023-11-04T18:09:08.771Z,98912.88
2023-11-04T18:11:37.602Z,98895.94
2023-11-04T18:14:05.312Z,98888.72
2023-11-04T18:16:32.930Z,98873.66
2023-11-04T18:19:00.467Z,98888.88
2023-11-04T18:21:28.304Z,98867.41
2023-11-04T18:23:55.788Z,98867.25
2023-11-04T18:26:23.297Z,98856.69
2023-11-04T18:28:50.919Z,98865.59
2023-11-04T18:31:18.587Z,98853.19
2023-11-04T18:33:46.200Z,98854.88
2023-11-04T18:36:15.450Z,98849.50
2023-11-04T18:38:43.134Z,98844.13
2023-11-04T18:41:16.879Z,98849.31
2023-11-04T18:43:44.790Z,98833.41
2023-11-04T18:46:13.115Z,98853.19
2023-11-04T18:48:41.068Z,98848.63
2023-11-04T18:51:08.651Z,98838.78
2023-11-04T18:53:36.178Z,98833.41
2023-11-04T18:56:03.845Z,98833.41
2023-11-04T18:58:31.231Z,98823.66
2023-11-04T19:00:58.667Z,98817.31
2023-11-04T19:03:26.187Z,98814.63
2023-11-04T19:05:53.684Z,98802.19
2023-11-04T19:08:21.255Z,98795.84
2023-11-04T19:10:48.748Z,98781.56
2023-11-04T19:13:17.252Z,98778.88
2023-11-04T19:15:45.740Z,98771.84
2023-11-04T19:18:13.181Z,98781.56
2023-11-04T19:20:40.888Z,98769.00
2023-11-04T19:23:09.672Z,98751.22
2023-11-04T19:25:37.214Z,98747.56
2023-11-04T19:28:04.992Z,98735.97
2023-11-04T19:30:32.522Z,98727.06
2023-11-04T19:33:00.164Z,98714.50
2023-11-04T19:35:27.693Z,98702.94
2023-11-04T19:37:55.233Z,98702.94
2023-11-04T19:40:22.712Z,98692.19
2023-11-04T19:42:51.191Z,98682.50
2023-11-04T19:45:22.942Z,98686.00
2023-11-04T19:47:51.119Z,98678.97
2023-11-04T19:50:19.768Z,98674.44
2023-11-04T19:52:47.398Z,98682.50
2023-11-04T19:55:17.461Z,98682.50
2023-11-04T19:57:45.444Z,98681.47
2023-11-04T20:00:13.428Z,98665.38
2023-11-04T20:02:41.211Z,98647.63
2023-11-04T20:05:09.804Z,98642.25
2023-11-04T20:07:38.512Z,98625.13
2023-11-04T20:10:06.385Z,98597.47
2023-11-04T20:12:33.895Z,98591.28
2023-11-04T20:15:01.450Z,98602.00
2023-11-04T20:17:28.924Z,98583.22
2023-11-04T20:19:57.803Z,98577.88
2023-11-04T20:22:25.885Z,98583.22
2023-11-04T20:24:55.130Z,98581.56
2023-11-04T20:27:23.993Z,98575.19
2023-11-04T20:29:51.974Z,98577.88
2023-11-04T20:32:19.470Z,98593.13
2023-11-04T20:34:46.918Z,98585.91
2023-11-04T20:37:14.421Z,98587.78
2023-11-04T20:39:42.655Z,98587.78
2023-11-04T20:42:10.188Z,98584.06
2023-11-04T20:44:37.629Z,98581.38
2023-11-04T20:47:04.966Z,98575.19
2023-11-04T20:49:33.181Z,98559.09
2023-11-04T20:52:00.721Z,98549.38
2023-11-04T20:54:28.133Z,98555.56
2023-11-04T20:56:55.517Z,98558.25
2023-11-04T20:59:23.091Z,98564.47
2023-11-04T21:01:50.485Z,98539.47
2023-11-04T21:04:18.090Z,98541.13
2023-11-04T21:06:48.445Z,98523.38
2023-11-04T21:09:19.334Z,98506.47
2023-11-04T21:11:47.065Z,98516.16
2023-11-04T21:14:14.443Z,98506.47
2023-11-04T21:16:41.794Z,98498.41
2023-11-04T21:19:09.527Z,98501.94
2023-11-04T21:21:36.957Z,98495.72
2023-11-04T21:24:04.741Z,98488.50
2023-11-04T21:26:32.087Z,98480.47
2023-11-04T21:28:59.527Z,98475.94
2023-11-04T21:31:26.858Z,98470.75
2023-11-04T21:33:54.237Z,98471.59
2023-11-04T21:36:21.640Z,98474.28
2023-11-04T21:38:48.962Z,98459.00
2023-11-04T21:41:16.941Z,98452.81
2023-11-04T21:43:44.359Z,98436.50
2023-11-04T21:46:11.715Z,98436.50
2023-11-04T21:48:39.146Z,98436.34
2023-11-04T21:51:06.507Z,98407.84
2023-11-04T21:53:34.958Z,98397.94
2023-11-04T21:56:02.300Z,98419.22
2023-11-04T21:58:30.576Z,98414.88
2023-11-04T22:01:01.220Z,98417.56
2023-11-04T22:03:28.807Z,98419.22
2023-11-04T22:05:56.309Z,98400.44
2023-11-04T22:08:23.663Z,98396.72
2023-11-04T22:10:51.013Z,98390.53
2023-11-04T22:13:19.799Z,98386.00
2023-11-04T22:15:47.266Z,98383.09
2023-11-04T22:18:14.829Z,98381.47
2023-11-04T22:20:42.251Z,98382.28
2023-11-04T22:23:09.602Z,98368.69
2023-11-04T22:25:38.170Z,98376.53
2023-11-04T22:28:05.844Z,98392.63
2023-11-04T22:30:33.231Z,98398.84
2023-11-04T22:33:00.511Z,98397.81
2023-11-04T22:35:27.864Z,98375.34
2023-11-04T22:37:55.228Z,98342.13
2023-11-04T22:40:22.932Z,98329.53
2023-11-04T22:42:50.317Z,98314.25
2023-11-04T22:45:17.779Z,98323.13
2023-11-04T22:47:45.184Z,98336.38
2023-11-04T22:50:12.557Z,98328.31
2023-11-04T22:52:39.950Z,98316.56
2023-11-04T22:55:07.495Z,98320.06
2023-11-04T22:57:34.834Z,98310.97
2023-11-04T23:00:04.023Z,98286.84
2023-11-04T23:02:32.860Z,98269.72
2023-11-04T23:05:00.399Z,98270.56
2023-11-04T23:07:28.435Z,98264.38
2023-11-04T23:09:55.786Z,98249.91
2023-11-04T23:12:23.774Z,98250.75
2023-11-04T23:14:52.457Z,98239.19
2023-11-04T23:17:19.822Z,98240.00
2023-11-04T23:19:47.250Z,98218.53
2023-11-04T23:22:15.154Z,98199.75
2023-11-04T23:24:42.543Z,98201.63
2023-11-04T23:27:09.986Z,98208.84
2023-11-04T23:29:37.313Z,98205.34
2023-11-04T23:32:04.767Z,98197.28
2023-11-04T23:34:32.177Z,98181.19
2023-11-04T23:36:59.647Z,98179.31
2023-11-04T23:39:27.051Z,98185.50
2023-11-04T23:41:54.358Z,98182.63
2023-11-04T23:44:21.766Z,98165.69
2023-11-04T23:46:49.211Z,98167.34
2023-11-04T23:49:16.646Z,98152.28
2023-11-04T23:51:44.050Z,98142.19
2023-11-04T23:54:11.436Z,98128.78
2023-11-04T23:56:38.799Z,98134.97
2023-11-04T23:59:07.044Z,98111.66
